Nearby METAR Reports

 

KSJC - San Jose, California, USA
Distance from station: NE 9mi, 14km
Updated: Thu, 19-May-2022 12:53am PDT
Clear
Clear
 Wind from WNW
Wind: WNW 5 mph , 7 km/h
Temperature: 63°F , 17°C
Dew Point: 54°F , 12°C
Humidity: 73%
Barometer: 30.02 inHg , 1016.6 hPa
Clouds: Clear
Visibility: 10 miles , 16 km
2022/05/19 07:53 KSJC 190753Z AUTO 30004KT 10SM CLR 17/12 A3002 RMK AO2 SLP164 T01670117 403000100
KNUQ - Moffett Nas/Mtn, California, USA
Distance from station: N 9mi, 14km
Updated: Thu, 19-May-2022 1:30am PDT

 Wind from calm
Wind: Calm
Temperature: 63°F , 17°C
Dew Point: 55°F , 13°C
Humidity: 77%
Barometer: 30.01 inHg , 1016.3 hPa
Visibility: 10 miles , 16 km
2022/05/19 08:30 KNUQ 190830Z AUTO 00000KT 10SM 17/13 A3001 RMK AO2
 
KPAO - Palo Alto, California, USA
Distance from station: NNW 14mi, 23km
Updated: Wed, 18-May-2022 8:47pm PDT
NOT Current
Clear
Clear
 Wind from NNW
Wind: NNW 8 mph , 13 km/h
Temperature: 64°F , 18°C
Dew Point: 55°F , 13°C
Humidity: 73%
Barometer: 30.00 inHg , 1015.9 hPa
Clouds: Clear
Visibility: 10 miles , 16 km
2022/05/19 03:47 KPAO 190347Z 33007KT 10SM SKC 18/13 A3000 RMK LAST
KRHV - San Jose/Reid, California, USA
Distance from station: ENE 12mi, 19km
Updated: Wed, 18-May-2022 9:55pm PDT
NOT Current
Clear
Clear
 Wind from W
Wind: W 5 mph , 7 km/h
Temperature: 68°F , 20°C
Dew Point: 52°F , 11°C
Humidity: 56%
Barometer: 30.02 inHg , 1016.6 hPa
Clouds: Clear
Visibility: 10 miles , 16 km
2022/05/19 04:55 KRHV 190455Z 28004KT 10SM SKC 20/11 A3002
 
KOAK - Oakland, California, USA
Distance from station: NNW 31mi, 50km
Updated: Thu, 19-May-2022 12:53am PDT
Clear
Clear
 Wind from WNW
Wind: WNW 3 mph , 6 km/h
Temperature: 61°F , 16°C
Dew Point: 54°F , 12°C
Humidity: 77%
Barometer: 30.02 inHg , 1016.6 hPa
Clouds: Clear
Visibility: 10 miles , 16 km
2022/05/19 07:53 KOAK 190753Z 30003KT 10SM CLR 16/12 A3002 RMK AO2 SLP163 T01560117 402390094
KSQL - San Carlos Airpo, California, USA
Distance from station: NW 21mi, 34km
Updated: Thu, 19-May-2022 1:35am PDT
Clear
Clear
 Wind from calm
Wind: Calm
Temperature: 64°F , 18°C
Dew Point: 54°F , 12°C
Humidity: 68%
Barometer: 30.02 inHg , 1016.6 hPa
Clouds: Clear
Visibility: 10 miles , 16 km
2022/05/19 08:35 KSQL 190835Z AUTO 00000KT 10SM CLR 18/12 A3002 RMK AO2
 
KSFO - San Francisco, California, USA
Distance from station: NW 30mi, 49km
Updated: Thu, 19-May-2022 12:56am PDT
Clear
Clear
 Wind from WNW
Wind: WNW 15 mph , 24 km/h
Temperature: 59°F , 15°C
Dew Point: 50°F , 10°C
Humidity: 72%
Barometer: 30.01 inHg , 1016.3 hPa
Clouds: Clear
Visibility: 10 miles , 16 km
2022/05/19 07:56 KSFO 190756Z 29013KT 10SM CLR 15/10 A3001 RMK AO2 SLP162 T01500100 402500100
KE16 - San Martin, California, USA
Distance from station: ESE 27mi, 43km
Updated: Thu, 19-May-2022 1:35am PDT
Clear
Clear
 Wind from NNW
Wind: NNW 13 mph , 20 km/h
Temperature: 64°F , 18°C
Dew Point: 50°F , 10°C
Humidity: 60%
Barometer: 30.01 inHg , 1016.3 hPa
Clouds: Clear
Visibility: 10 miles , 16 km
2022/05/19 08:35 KE16 190835Z AUTO 33011KT 10SM CLR 18/10 A3001 RMK AO2 PWINO PNO
 
KWVI - Watsonville, California, USA
Distance from station: SSE 27mi, 44km
Updated: Thu, 19-May-2022 12:53am PDT
Clear
Clear
 Wind from calm
Wind: Calm
Temperature: 55°F , 13°C
Dew Point: 50°F , 10°C
Humidity: 82%
Barometer: 30.00 inHg , 1015.9 hPa
Clouds: Clear
Visibility: 10 miles , 16 km
2022/05/19 07:53 KWVI 190753Z AUTO 00000KT 10SM CLR 13/10 A3000 RMK AO2 SLP159 T01280100 402390083
KHAF - Half Moon Bay, California, USA
Distance from station: WNW 31mi, 50km
Updated: Thu, 19-May-2022 1:35am PDT
Mist, Clear
Mist, Clear
 Wind from N
Wind: N 12 mph , 19 km/h, Gust: 21 mph , 33 km/h
Temperature: 55°F , 13°C
Dew Point: 54°F , 12°C
Humidity: 94%
Barometer: 30.03 inHg , 1016.9 hPa
Summary: Mist
Clouds: Clear
Visibility: 6 miles , 10 km
2022/05/19 08:35 KHAF 190835Z AUTO 35010G18KT 6SM BR CLR 13/12 A3003 RMK AO2
 
KHWD - Hayward, California, USA
Distance from station: N 28mi, 44km
Updated: Thu, 19-May-2022 12:54am PDT
Clear
Clear
 Wind from SSE
Wind: SSE 3 mph , 6 km/h
Temperature: 61°F , 16°C
Dew Point: 54°F , 12°C
Humidity: 77%
Barometer: 30.01 inHg , 1016.3 hPa
Clouds: Clear
Visibility: 10 miles , 16 km
2022/05/19 07:54 KHWD 190754Z 15003KT 10SM CLR 16/12 A3001 RMK AO2 SLP171 T01560122 402610100
KLVK - Livermore, California, USA
Distance from station: NNE 31mi, 51km
Updated: Thu, 19-May-2022 12:53am PDT
Clear
Clear
 Wind from calm
Wind: Calm
Temperature: 64°F , 18°C
Dew Point: 52°F , 11°C
Humidity: 64%
Barometer: 30.00 inHg , 1015.9 hPa
Clouds: Clear
Visibility: 10 miles , 16 km
2022/05/19 07:53 KLVK 190753Z AUTO 00000KT 10SM CLR 18/11 A3000 RMK AO2 SLP153 T01830111 403330089